createdAt,value
2023-06-17T00:02:19.813Z,18.42
2023-06-17T00:06:26.680Z,18.29
2023-06-17T00:10:33.589Z,18.18
2023-06-17T00:14:42.013Z,18.11
2023-06-17T00:18:49.208Z,18.09
2023-06-17T00:22:56.094Z,18.05
2023-06-17T00:27:03.460Z,18.00
2023-06-17T00:31:10.456Z,18.00
2023-06-17T00:35:17.323Z,17.95
2023-06-17T00:39:24.208Z,17.84
2023-06-17T00:43:31.314Z,17.83
2023-06-17T00:47:39.024Z,17.79
2023-06-17T00:51:56.429Z,17.71
2023-06-17T00:56:12.350Z,17.72
2023-06-17T01:00:20.010Z,17.71
2023-06-17T01:04:29.486Z,17.69
2023-06-17T01:08:43.903Z,17.69
2023-06-17T01:12:52.482Z,17.62
2023-06-17T01:16:59.633Z,17.54
2023-06-17T01:21:07.264Z,17.48
2023-06-17T01:25:14.541Z,17.44
2023-06-17T01:29:22.187Z,17.39
2023-06-17T01:33:29.946Z,17.29
2023-06-17T01:37:42.915Z,17.19
2023-06-17T01:41:55.248Z,17.09
2023-06-17T01:46:03.260Z,16.97
2023-06-17T01:50:11.929Z,16.87
2023-06-17T01:54:18.894Z,16.84
2023-06-17T01:58:26.037Z,16.81
2023-06-17T02:02:33.138Z,16.75
2023-06-17T02:06:40.787Z,16.73
2023-06-17T02:10:47.704Z,16.73
2023-06-17T02:14:54.626Z,16.70
2023-06-17T02:19:03.518Z,16.69
2023-06-17T02:23:10.461Z,16.71
2023-06-17T02:27:18.072Z,16.66
2023-06-17T02:31:25.119Z,16.62
2023-06-17T02:35:32.126Z,16.51
2023-06-17T02:39:39.079Z,16.47
2023-06-17T02:43:46.131Z,16.46
2023-06-17T02:47:53.158Z,16.38
2023-06-17T02:52:00.049Z,16.29
2023-06-17T02:56:07.415Z,16.28
2023-06-17T03:00:15.554Z,16.26
2023-06-17T03:04:22.590Z,16.21
2023-06-17T03:08:29.574Z,16.28
2023-06-17T03:12:36.459Z,16.33
2023-06-17T03:16:45.808Z,16.36
2023-06-17T03:20:54.338Z,16.33
2023-06-17T03:25:01.215Z,16.37
2023-06-17T03:29:08.094Z,16.42
2023-06-17T03:33:15.986Z,16.47
2023-06-17T03:37:23.227Z,16.54
2023-06-17T03:41:30.252Z,16.58
2023-06-17T03:45:37.953Z,16.63
2023-06-17T03:49:45.545Z,16.65
2023-06-17T03:53:52.454Z,16.70
2023-06-17T03:57:59.294Z,16.77
2023-06-17T04:02:06.770Z,16.84
2023-06-17T04:06:15.703Z,16.93
2023-06-17T04:10:22.868Z,17.04
2023-06-17T04:14:32.075Z,17.09
2023-06-17T04:18:38.937Z,17.11
2023-06-17T04:22:46.279Z,17.14
2023-06-17T04:26:53.997Z,17.22
2023-06-17T04:31:02.700Z,17.33
2023-06-17T04:35:12.327Z,17.44
2023-06-17T04:39:19.335Z,17.58
2023-06-17T04:43:29.991Z,17.75
2023-06-17T04:47:37.620Z,17.90
2023-06-17T04:51:44.528Z,18.05
2023-06-17T04:55:52.173Z,18.21
2023-06-17T04:59:58.992Z,18.32
2023-06-17T05:04:06.865Z,18.42
2023-06-17T05:08:13.865Z,18.46
2023-06-17T05:12:20.787Z,18.50
2023-06-17T05:16:27.770Z,18.67
2023-06-17T05:20:34.726Z,18.87
2023-06-17T05:24:41.694Z,19.08
2023-06-17T05:28:49.210Z,19.35
2023-06-17T05:32:56.142Z,19.68
2023-06-17T05:37:03.021Z,20.01
2023-06-17T05:41:10.046Z,20.19
2023-06-17T05:45:17.479Z,20.36
2023-06-17T05:49:24.449Z,20.45
2023-06-17T05:53:31.353Z,20.42
2023-06-17T05:57:38.192Z,20.49
2023-06-17T06:01:45.064Z,20.68
2023-06-17T06:05:51.969Z,20.95
2023-06-17T06:09:58.813Z,21.10
2023-06-17T06:14:05.904Z,21.15
2023-06-17T06:18:12.936Z,21.28
2023-06-17T06:22:20.069Z,21.36
2023-06-17T06:26:27.676Z,21.48
2023-06-17T06:30:34.526Z,21.64
2023-06-17T06:34:41.413Z,21.62
2023-06-17T06:38:48.486Z,21.57
2023-06-17T06:42:55.299Z,21.53
2023-06-17T06:47:02.179Z,21.60
2023-06-17T06:51:09.081Z,21.75
2023-06-17T06:55:16.125Z,21.85
2023-06-17T06:59:22.987Z,22.03
2023-06-17T07:03:29.893Z,22.18
2023-06-17T07:07:36.802Z,22.38
2023-06-17T07:11:43.659Z,22.58
2023-06-17T07:15:50.738Z,22.77
2023-06-17T07:19:57.628Z,22.88
2023-06-17T07:24:04.609Z,22.85
2023-06-17T07:28:12.326Z,22.70
2023-06-17T07:32:19.291Z,22.62
2023-06-17T07:36:26.176Z,22.84
2023-06-17T07:40:33.273Z,23.13
2023-06-17T07:44:40.163Z,23.28
2023-06-17T07:48:47.116Z,23.34
2023-06-17T07:52:54.175Z,23.42
2023-06-17T07:57:01.069Z,23.51
2023-06-17T08:01:08.016Z,23.64
2023-06-17T08:05:15.099Z,23.80
2023-06-17T08:09:22.029Z,23.70
2023-06-17T08:13:28.886Z,23.56
2023-06-17T08:17:35.916Z,23.34
2023-06-17T08:21:55.174Z,23.27
2023-06-17T08:26:02.079Z,23.25
2023-06-17T08:30:31.589Z,23.16
2023-06-17T08:34:38.464Z,23.24
2023-06-17T08:38:46.366Z,23.39
2023-06-17T08:43:16.127Z,23.51
2023-06-17T08:47:27.115Z,23.61
2023-06-17T08:51:34.232Z,23.69
2023-06-17T08:56:05.222Z,23.70
2023-06-17T09:00:36.703Z,23.80
2023-06-17T09:04:44.032Z,23.77
2023-06-17T09:08:52.962Z,23.69
2023-06-17T09:17:53.709Z,23.38
2023-06-17T09:27:01.690Z,23.28
2023-06-17T09:31:43.657Z,23.23
2023-06-17T09:36:05.356Z,23.21
2023-06-17T09:40:33.757Z,23.38
2023-06-17T09:44:52.398Z,23.82
2023-06-17T09:53:54.161Z,24.65
2023-06-17T09:58:42.836Z,24.93
2023-06-17T10:03:02.320Z,25.24
2023-06-17T10:07:10.505Z,25.73
2023-06-17T10:11:20.448Z,26.10
2023-06-17T10:16:00.281Z,26.42
2023-06-17T10:20:11.368Z,26.69
2023-06-17T10:29:29.841Z,27.21
2023-06-17T10:33:49.942Z,27.40
2023-06-17T10:38:11.821Z,27.28
2023-06-17T10:42:18.734Z,27.06
2023-06-17T10:46:28.500Z,26.95
2023-06-17T10:50:40.422Z,26.75
2023-06-17T10:59:14.873Z,26.70
2023-06-17T11:03:38.471Z,26.90
2023-06-17T11:07:45.799Z,26.98
2023-06-17T11:12:03.380Z,27.03
2023-06-17T11:16:24.725Z,27.28
2023-06-17T11:20:32.526Z,27.73
2023-06-17T11:24:39.727Z,28.14
2023-06-17T11:28:53.343Z,28.38
2023-06-17T11:33:00.812Z,28.62
2023-06-17T11:37:12.369Z,28.91
2023-06-17T11:41:19.808Z,28.91
2023-06-17T11:49:52.214Z,29.04
2023-06-17T11:53:59.808Z,29.08
2023-06-17T11:58:13.340Z,29.03
2023-06-17T12:07:27.346Z,29.34
2023-06-17T12:11:57.684Z,29.23
2023-06-17T12:16:34.746Z,29.24
2023-06-17T12:20:52.171Z,29.59
2023-06-17T12:25:12.471Z,29.72
2023-06-17T12:29:25.173Z,29.57
2023-06-17T12:33:43.414Z,29.41
2023-06-17T12:37:52.511Z,29.12
2023-06-17T12:42:06.450Z,28.93
2023-06-17T12:46:13.373Z,28.83
2023-06-17T12:50:20.560Z,28.73
2023-06-17T12:54:45.989Z,28.62
2023-06-17T12:58:59.377Z,28.69
2023-06-17T13:03:06.945Z,30.21
2023-06-17T13:07:14.164Z,33.18
2023-06-17T13:11:24.910Z,35.01
2023-06-17T13:15:31.838Z,34.79
2023-06-17T13:19:52.564Z,33.32
2023-06-17T13:23:59.493Z,32.18
2023-06-17T13:28:30.405Z,31.63
2023-06-17T13:32:48.919Z,31.41
2023-06-17T13:36:56.249Z,32.65
2023-06-17T13:41:11.418Z,32.94
2023-06-17T13:45:19.158Z,32.57
2023-06-17T13:50:02.173Z,32.39
2023-06-17T13:54:11.290Z,34.25
2023-06-17T13:58:18.230Z,33.56
2023-06-17T14:02:25.161Z,32.65
2023-06-17T14:06:52.936Z,32.36
2023-06-17T14:11:05.497Z,31.80
2023-06-17T14:15:13.844Z,31.28
2023-06-17T14:19:35.073Z,32.85
2023-06-17T14:24:10.833Z,34.28
2023-06-17T14:28:20.938Z,34.76
2023-06-17T14:37:20.793Z,33.68
2023-06-17T14:45:48.323Z,34.60
2023-06-17T14:49:55.531Z,34.66
2023-06-17T14:54:17.058Z,34.20
2023-06-17T14:58:45.829Z,33.52
2023-06-17T15:12:31.588Z,30.44
2023-06-17T15:16:49.640Z,29.58
2023-06-17T15:21:16.870Z,29.12
2023-06-17T15:29:37.559Z,28.48
2023-06-17T15:43:11.307Z,27.93
2023-06-17T15:47:49.404Z,27.83
2023-06-17T15:52:17.768Z,27.91
2023-06-17T15:56:51.020Z,27.87
2023-06-17T16:01:24.019Z,27.88
2023-06-17T16:05:35.293Z,28.00
2023-06-17T16:14:07.370Z,28.24
2023-06-17T16:18:14.902Z,28.23
2023-06-17T16:22:30.800Z,28.11
2023-06-17T16:31:02.453Z,27.55
2023-06-17T16:35:10.754Z,27.28
2023-06-17T16:39:25.260Z,26.91
2023-06-17T16:43:32.175Z,26.55
2023-06-17T16:47:43.636Z,26.26
2023-06-17T17:00:40.574Z,25.48
2023-06-17T17:04:47.476Z,25.30
2023-06-17T17:09:04.843Z,25.23
2023-06-17T17:13:11.887Z,25.04
2023-06-17T17:17:18.832Z,24.97
2023-06-17T17:21:29.085Z,24.94
2023-06-17T17:25:36.917Z,24.80
2023-06-17T17:29:56.228Z,24.63
2023-06-17T17:34:03.151Z,24.54
2023-06-17T17:38:35.802Z,24.44
2023-06-17T17:43:08.798Z,24.24
2023-06-17T17:47:15.752Z,24.07
2023-06-17T17:51:43.373Z,23.99
2023-06-17T17:56:07.837Z,23.92
2023-06-17T18:00:30.022Z,23.75
2023-06-17T18:09:02.779Z,23.44
2023-06-17T18:13:09.633Z,23.44
2023-06-17T18:17:25.657Z,23.43
2023-06-17T18:21:49.767Z,23.40
2023-06-17T18:25:57.941Z,23.21
2023-06-17T18:30:05.528Z,22.99
2023-06-17T18:34:18.674Z,22.80
2023-06-17T18:42:52.879Z,22.64
2023-06-17T18:47:00.490Z,22.57
2023-06-17T18:51:07.582Z,22.46
2023-06-17T18:55:14.592Z,22.29
2023-06-17T18:59:21.847Z,22.16
2023-06-17T19:03:29.340Z,22.03
2023-06-17T19:07:38.583Z,21.97
2023-06-17T19:11:45.691Z,21.93
2023-06-17T19:15:52.580Z,21.79
2023-06-17T19:19:59.756Z,21.62
2023-06-17T19:24:07.208Z,21.57
2023-06-17T19:28:14.484Z,21.56
2023-06-17T19:32:21.566Z,21.54
2023-06-17T19:36:29.060Z,21.46
2023-06-17T19:40:36.010Z,21.36
2023-06-17T19:44:44.107Z,21.22
2023-06-17T19:48:51.453Z,21.02
2023-06-17T19:52:58.346Z,20.85
2023-06-17T19:57:05.922Z,20.77
2023-06-17T20:01:12.867Z,20.80
2023-06-17T20:05:19.890Z,20.82
2023-06-17T20:09:27.437Z,20.86
2023-06-17T20:13:34.507Z,20.85
2023-06-17T20:17:41.731Z,20.78
2023-06-17T20:21:48.682Z,20.70
2023-06-17T20:25:55.556Z,20.64
2023-06-17T20:30:02.560Z,20.59
2023-06-17T20:34:09.549Z,20.60
2023-06-17T20:38:16.712Z,20.60
2023-06-17T20:42:23.681Z,20.59
2023-06-17T20:46:30.867Z,20.58
2023-06-17T20:50:38.098Z,20.61
2023-06-17T20:54:45.014Z,20.63
2023-06-17T20:58:52.873Z,20.58
2023-06-17T21:02:59.914Z,20.53
2023-06-17T21:07:07.579Z,20.52
2023-06-17T21:11:14.949Z,20.49
2023-06-17T21:15:21.889Z,20.47
2023-06-17T21:19:28.894Z,20.47
2023-06-17T21:23:36.278Z,20.51
2023-06-17T21:27:43.256Z,20.53
2023-06-17T21:31:50.773Z,20.46
2023-06-17T21:35:57.762Z,20.35
2023-06-17T21:40:05.122Z,20.28
2023-06-17T21:44:12.127Z,20.29
2023-06-17T21:48:19.018Z,20.23
2023-06-17T21:52:25.880Z,20.16
2023-06-17T21:56:32.887Z,20.09
2023-06-17T22:00:40.710Z,20.00
2023-06-17T22:04:47.587Z,19.91
2023-06-17T22:08:54.498Z,19.84
2023-06-17T22:13:01.795Z,19.82
2023-06-17T22:17:09.708Z,19.81
2023-06-17T22:21:16.662Z,19.73
2023-06-17T22:25:23.583Z,19.59
2023-06-17T22:29:30.415Z,19.52
2023-06-17T22:33:37.494Z,19.50
2023-06-17T22:37:45.008Z,19.51
2023-06-17T22:41:51.867Z,19.49
2023-06-17T22:45:58.698Z,19.50
2023-06-17T22:50:06.486Z,19.49
2023-06-17T22:54:13.339Z,19.46
2023-06-17T22:58:20.218Z,19.38
2023-06-17T23:02:27.446Z,19.30
2023-06-17T23:06:34.518Z,19.27
2023-06-17T23:10:41.391Z,19.21
2023-06-17T23:14:48.271Z,19.14
2023-06-17T23:18:55.191Z,19.12
2023-06-17T23:23:05.161Z,19.10
2023-06-17T23:27:11.992Z,19.08
2023-06-17T23:31:18.933Z,19.00
2023-06-17T23:35:25.996Z,18.93
2023-06-17T23:39:32.856Z,18.94
2023-06-17T23:43:39.768Z,18.88
2023-06-17T23:47:46.736Z,18.89
2023-06-17T23:51:53.625Z,18.87
2023-06-17T23:56:00.508Z,18.76
